sensor_id;sensor_type;location;lat;lon;timestamp;temperature;humidity
52979;DHT22;63430;53.186;6.598;2022-11-04T00:01:50;11.60;99.90
52979;DHT22;63430;53.186;6.598;2022-11-04T00:03:53;11.50;99.90
52979;DHT22;63430;53.186;6.598;2022-11-04T00:05:59;11.80;99.90
52979;DHT22;63430;53.186;6.598;2022-11-04T00:08:02;11.50;99.90
52979;DHT22;63430;53.186;6.598;2022-11-04T00:10:25;11.60;99.90
52979;DHT22;63430;53.186;6.598;2022-11-04T00:12:47;11.50;99.90
52979;DHT22;63430;53.186;6.598;2022-11-04T00:14:50;11.50;99.90
52979;DHT22;63430;53.186;6.598;2022-11-04T00:16:52;11.50;99.90
52979;DHT22;63430;53.186;6.598;2022-11-04T00:19:13;12.50;99.90
52979;DHT22;63430;53.186;6.598;2022-11-04T00:21:15;11.60;99.90
52979;DHT22;63430;53.186;6.598;2022-11-04T00:23:36;11.50;99.90
52979;DHT22;63430;53.186;6.598;2022-11-04T00:26:00;11.50;99.90
52979;DHT22;63430;53.186;6.598;2022-11-04T00:28:20;11.60;99.90
52979;DHT22;63430;53.186;6.598;2022-11-04T00:30:41;11.60;99.90
52979;DHT22;63430;53.186;6.598;2022-11-04T00:32:44;11.50;99.90
52979;DHT22;63430;53.186;6.598;2022-11-04T00:35:05;11.50;99.90
52979;DHT22;63430;53.186;6.598;2022-11-04T00:37:08;11.50;99.90
52979;DHT22;63430;53.186;6.598;2022-11-04T00:39:10;11.50;99.90
52979;DHT22;63430;53.186;6.598;2022-11-04T00:41:15;11.50;99.90
52979;DHT22;63430;53.186;6.598;2022-11-04T00:43:28;11.50;99.90
52979;DHT22;63430;53.186;6.598;2022-11-04T00:45:30;11.50;99.90
52979;DHT22;63430;53.186;6.598;2022-11-04T00:47:32;11.50;99.90
52979;DHT22;63430;53.186;6.598;2022-11-04T00:49:35;11.40;99.90
52979;DHT22;63430;53.186;6.598;2022-11-04T00:51:37;11.40;99.90
52979;DHT22;63430;53.186;6.598;2022-11-04T00:53:40;11.80;99.90
52979;DHT22;63430;53.186;6.598;2022-11-04T00:55:42;11.50;99.90
52979;DHT22;63430;53.186;6.598;2022-11-04T00:57:47;11.30;99.90
52979;DHT22;63430;53.186;6.598;2022-11-04T00:59:49;11.30;99.90
52979;DHT22;63430;53.186;6.598;2022-11-04T01:01:52;11.20;99.90
52979;DHT22;63430;53.186;6.598;2022-11-04T01:03:55;11.20;99.90
52979;DHT22;63430;53.186;6.598;2022-11-04T01:05:58;11.10;99.90
52979;DHT22;63430;53.186;6.598;2022-11-04T01:08:03;11.10;99.90
52979;DHT22;63430;53.186;6.598;2022-11-04T01:10:07;11.00;99.90
52979;DHT22;63430;53.186;6.598;2022-11-04T01:12:09;11.00;99.90
52979;DHT22;63430;53.186;6.598;2022-11-04T01:14:15;11.00;99.90
52979;DHT22;63430;53.186;6.598;2022-11-04T01:16:18;10.90;99.90
52979;DHT22;63430;53.186;6.598;2022-11-04T01:18:20;10.90;99.90
52979;DHT22;63430;53.186;6.598;2022-11-04T01:20:22;10.90;99.90
52979;DHT22;63430;53.186;6.598;2022-11-04T01:22:25;10.80;99.90
52979;DHT22;63430;53.186;6.598;2022-11-04T01:24:27;11.00;99.90
52979;DHT22;63430;53.186;6.598;2022-11-04T01:26:29;10.80;99.90
52979;DHT22;63430;53.186;6.598;2022-11-04T01:28:32;10.80;99.90
52979;DHT22;63430;53.186;6.598;2022-11-04T01:30:37;10.50;99.90
52979;DHT22;63430;53.186;6.598;2022-11-04T01:32:40;10.70;99.90
52979;DHT22;63430;53.186;6.598;2022-11-04T01:34:42;10.70;99.90
52979;DHT22;63430;53.186;6.598;2022-11-04T01:36:47;10.70;99.90
52979;DHT22;63430;53.186;6.598;2022-11-04T01:38:50;11.10;99.90
52979;DHT22;63430;53.186;6.598;2022-11-04T01:40:52;10.70;99.90
52979;DHT22;63430;53.186;6.598;2022-11-04T01:42:54;10.70;99.90
52979;DHT22;63430;53.186;6.598;2022-11-04T01:44:57;10.70;99.90
52979;DHT22;63430;53.186;6.598;2022-11-04T01:47:03;10.70;99.90
52979;DHT22;63430;53.186;6.598;2022-11-04T01:49:17;10.70;99.90
52979;DHT22;63430;53.186;6.598;2022-11-04T01:51:24;10.70;99.90
52979;DHT22;63430;53.186;6.598;2022-11-04T01:53:31;10.70;99.90
52979;DHT22;63430;53.186;6.598;2022-11-04T01:55:38;10.70;99.90
52979;DHT22;63430;53.186;6.598;2022-11-04T01:57:44;10.80;99.90
52979;DHT22;63430;53.186;6.598;2022-11-04T01:59:48;11.20;99.90
52979;DHT22;63430;53.186;6.598;2022-11-04T02:01:51;10.70;99.90
52979;DHT22;63430;53.186;6.598;2022-11-04T02:03:58;10.70;99.90
52979;DHT22;63430;53.186;6.598;2022-11-04T02:06:23;10.80;99.90
52979;DHT22;63430;53.186;6.598;2022-11-04T02:08:25;10.70;99.90
52979;DHT22;63430;53.186;6.598;2022-11-04T02:10:29;10.70;99.90
52979;DHT22;63430;53.186;6.598;2022-11-04T02:12:32;10.70;99.90
52979;DHT22;63430;53.186;6.598;2022-11-04T02:14:53;11.40;99.90
52979;DHT22;63430;53.186;6.598;2022-11-04T02:17:00;10.70;99.90
52979;DHT22;63430;53.186;6.598;2022-11-04T02:19:26;10.80;99.90
52979;DHT22;63430;53.186;6.598;2022-11-04T02:22:03;11.20;99.90
52979;DHT22;63430;53.186;6.598;2022-11-04T02:24:36;10.80;99.90
52979;DHT22;63430;53.186;6.598;2022-11-04T02:29:47;10.70;99.90
52979;DHT22;63430;53.186;6.598;2022-11-04T02:31:59;10.70;99.90
52979;DHT22;63430;53.186;6.598;2022-11-04T02:34:14;10.70;99.90
52979;DHT22;63430;53.186;6.598;2022-11-04T02:36:24;10.70;99.90
52979;DHT22;63430;53.186;6.598;2022-11-04T02:38:33;10.60;99.90
52979;DHT22;63430;53.186;6.598;2022-11-04T02:40:49;10.70;99.90
52979;DHT22;63430;53.186;6.598;2022-11-04T02:42:57;10.60;99.90
52979;DHT22;63430;53.186;6.598;2022-11-04T02:45:13;10.60;99.90
52979;DHT22;63430;53.186;6.598;2022-11-04T02:47:20;10.90;99.90
52979;DHT22;63430;53.186;6.598;2022-11-04T02:49:27;10.60;99.90
52979;DHT22;63430;53.186;6.598;2022-11-04T02:51:38;10.60;99.90
52979;DHT22;63430;53.186;6.598;2022-11-04T02:53:43;10.60;99.90
52979;DHT22;63430;53.186;6.598;2022-11-04T02:55:50;10.60;99.90
52979;DHT22;63430;53.186;6.598;2022-11-04T02:57:56;11.00;99.90
52979;DHT22;63430;53.186;6.598;2022-11-04T03:00:02;10.50;99.90
52979;DHT22;63430;53.186;6.598;2022-11-04T03:02:13;10.50;99.90
52979;DHT22;63430;53.186;6.598;2022-11-04T03:04:23;10.50;99.90
52979;DHT22;63430;53.186;6.598;2022-11-04T03:06:28;10.70;99.90
52979;DHT22;63430;53.186;6.598;2022-11-04T03:08:33;10.50;99.90
52979;DHT22;63430;53.186;6.598;2022-11-04T03:10:40;10.50;99.90
52979;DHT22;63430;53.186;6.598;2022-11-04T03:12:47;10.50;99.90
52979;DHT22;63430;53.186;6.598;2022-11-04T03:14:53;10.50;99.90
52979;DHT22;63430;53.186;6.598;2022-11-04T03:16:59;10.50;99.90
52979;DHT22;63430;53.186;6.598;2022-11-04T03:19:10;10.50;99.90
52979;DHT22;63430;53.186;6.598;2022-11-04T03:21:16;10.50;99.90
52979;DHT22;63430;53.186;6.598;2022-11-04T03:23:20;10.50;99.90
52979;DHT22;63430;53.186;6.598;2022-11-04T03:25:26;10.50;99.90
52979;DHT22;63430;53.186;6.598;2022-11-04T03:27:34;10.50;99.90
52979;DHT22;63430;53.186;6.598;2022-11-04T03:29:46;10.50;99.90
52979;DHT22;63430;53.186;6.598;2022-11-04T03:31:59;10.60;99.90
52979;DHT22;63430;53.186;6.598;2022-11-04T03:34:07;10.50;99.90
52979;DHT22;63430;53.186;6.598;2022-11-04T03:36:09;10.60;99.90
52979;DHT22;63430;53.186;6.598;2022-11-04T03:38:12;10.60;99.90
52979;DHT22;63430;53.186;6.598;2022-11-04T03:40:14;10.60;99.90
52979;DHT22;63430;53.186;6.598;2022-11-04T03:42:18;10.60;99.90
52979;DHT22;63430;53.186;6.598;2022-11-04T03:44:22;10.60;99.90
52979;DHT22;63430;53.186;6.598;2022-11-04T03:46:25;10.60;99.90
52979;DHT22;63430;53.186;6.598;2022-11-04T03:48:27;10.60;99.90
52979;DHT22;63430;53.186;6.598;2022-11-04T03:50:39;10.60;99.90
52979;DHT22;63430;53.186;6.598;2022-11-04T03:52:41;10.60;99.90
52979;DHT22;63430;53.186;6.598;2022-11-04T03:54:46;10.60;99.90
52979;DHT22;63430;53.186;6.598;2022-11-04T03:57:04;10.60;99.90
52979;DHT22;63430;53.186;6.598;2022-11-04T03:59:32;10.60;99.90
52979;DHT22;63430;53.186;6.598;2022-11-04T04:01:46;10.60;99.90
52979;DHT22;63430;53.186;6.598;2022-11-04T04:03:54;10.60;99.90
52979;DHT22;63430;53.186;6.598;2022-11-04T04:06:06;10.60;99.90
52979;DHT22;63430;53.186;6.598;2022-11-04T04:08:17;10.60;99.90
52979;DHT22;63430;53.186;6.598;2022-11-04T04:10:26;10.60;99.90
52979;DHT22;63430;53.186;6.598;2022-11-04T04:12:42;10.60;99.90
52979;DHT22;63430;53.186;6.598;2022-11-04T04:14:48;10.60;99.90
52979;DHT22;63430;53.186;6.598;2022-11-04T04:16:53;10.60;99.90
52979;DHT22;63430;53.186;6.598;2022-11-04T04:19:00;10.60;99.90
52979;DHT22;63430;53.186;6.598;2022-11-04T04:21:09;10.60;99.90
52979;DHT22;63430;53.186;6.598;2022-11-04T04:23:16;10.60;99.90
52979;DHT22;63430;53.186;6.598;2022-11-04T04:25:37;10.60;99.90
52979;DHT22;63430;53.186;6.598;2022-11-04T04:27:59;10.60;99.90
52979;DHT22;63430;53.186;6.598;2022-11-04T04:30:05;10.60;99.90
52979;DHT22;63430;53.186;6.598;2022-11-04T04:32:08;10.60;99.90
52979;DHT22;63430;53.186;6.598;2022-11-04T04:34:13;10.60;99.90
52979;DHT22;63430;53.186;6.598;2022-11-04T04:36:19;10.60;99.90
52979;DHT22;63430;53.186;6.598;2022-11-04T04:38:23;10.60;99.90
52979;DHT22;63430;53.186;6.598;2022-11-04T04:40:47;10.50;99.90
52979;DHT22;63430;53.186;6.598;2022-11-04T04:43:14;10.50;99.90
52979;DHT22;63430;53.186;6.598;2022-11-04T04:45:42;10.50;99.90
52979;DHT22;63430;53.186;6.598;2022-11-04T04:47:49;10.50;99.90
52979;DHT22;63430;53.186;6.598;2022-11-04T04:49:54;11.30;99.90
52979;DHT22;63430;53.186;6.598;2022-11-04T04:52:00;10.40;99.90
52979;DHT22;63430;53.186;6.598;2022-11-04T04:54:03;10.40;99.90
52979;DHT22;63430;53.186;6.598;2022-11-04T04:56:05;10.40;99.90
52979;DHT22;63430;53.186;6.598;2022-11-04T04:58:08;10.40;99.90
52979;DHT22;63430;53.186;6.598;2022-11-04T05:00:13;10.90;99.90
52979;DHT22;63430;53.186;6.598;2022-11-04T05:02:17;10.30;99.90
52979;DHT22;63430;53.186;6.598;2022-11-04T05:04:19;10.30;99.90
52979;DHT22;63430;53.186;6.598;2022-11-04T05:06:22;10.30;99.90
52979;DHT22;63430;53.186;6.598;2022-11-04T05:08:27;10.30;99.90
52979;DHT22;63430;53.186;6.598;2022-11-04T05:10:30;10.20;99.90
52979;DHT22;63430;53.186;6.598;2022-11-04T05:12:34;10.20;99.90
52979;DHT22;63430;53.186;6.598;2022-11-04T05:14:55;10.20;99.90
52979;DHT22;63430;53.186;6.598;2022-11-04T05:16:57;10.10;99.90
52979;DHT22;63430;53.186;6.598;2022-11-04T05:19:00;10.10;99.90
52979;DHT22;63430;53.186;6.598;2022-11-04T05:21:03;10.10;99.90
52979;DHT22;63430;53.186;6.598;2022-11-04T05:23:06;10.10;99.90
52979;DHT22;63430;53.186;6.598;2022-11-04T05:25:11;10.10;99.90
52979;DHT22;63430;53.186;6.598;2022-11-04T05:27:13;10.10;99.90
52979;DHT22;63430;53.186;6.598;2022-11-04T05:29:16;10.00;99.90
52979;DHT22;63430;53.186;6.598;2022-11-04T05:31:18;11.00;99.90
52979;DHT22;63430;53.186;6.598;2022-11-04T05:33:21;10.10;99.90
52979;DHT22;63430;53.186;6.598;2022-11-04T05:35:23;10.00;99.90
52979;DHT22;63430;53.186;6.598;2022-11-04T05:37:26;10.40;99.90
52979;DHT22;63430;53.186;6.598;2022-11-04T05:39:28;10.00;99.90
52979;DHT22;63430;53.186;6.598;2022-11-04T05:41:33;10.00;99.90
52979;DHT22;63430;53.186;6.598;2022-11-04T05:43:37;10.00;99.90
52979;DHT22;63430;53.186;6.598;2022-11-04T05:45:41;10.00;99.90
52979;DHT22;63430;53.186;6.598;2022-11-04T05:47:44;9.90;99.90
52979;DHT22;63430;53.186;6.598;2022-11-04T05:49:46;9.90;99.90
52979;DHT22;63430;53.186;6.598;2022-11-04T05:51:48;9.90;99.90
52979;DHT22;63430;53.186;6.598;2022-11-04T05:53:51;9.90;99.90
52979;DHT22;63430;53.186;6.598;2022-11-04T05:55:53;9.80;99.90
52979;DHT22;63430;53.186;6.598;2022-11-04T05:57:58;9.80;99.90
52979;DHT22;63430;53.186;6.598;2022-11-04T06:00:02;10.00;99.90
52979;DHT22;63430;53.186;6.598;2022-11-04T06:02:05;9.80;99.90
52979;DHT22;63430;53.186;6.598;2022-11-04T06:04:12;9.80;99.90
52979;DHT22;63430;53.186;6.598;2022-11-04T06:06:15;10.10;99.90
52979;DHT22;63430;53.186;6.598;2022-11-04T06:08:18;9.70;99.90
52979;DHT22;63430;53.186;6.598;2022-11-04T06:10:22;8.70;99.90
52979;DHT22;63430;53.186;6.598;2022-11-04T06:12:25;9.70;99.90
52979;DHT22;63430;53.186;6.598;2022-11-04T06:14:30;9.70;99.90
52979;DHT22;63430;53.186;6.598;2022-11-04T06:16:32;9.70;99.90
52979;DHT22;63430;53.186;6.598;2022-11-04T06:18:35;9.70;99.90
52979;DHT22;63430;53.186;6.598;2022-11-04T06:20:39;9.70;99.90
52979;DHT22;63430;53.186;6.598;2022-11-04T06:22:42;9.70;99.90
52979;DHT22;63430;53.186;6.598;2022-11-04T06:24:45;9.60;99.90
52979;DHT22;63430;53.186;6.598;2022-11-04T06:26:47;9.70;99.90
52979;DHT22;63430;53.186;6.598;2022-11-04T06:28:50;9.70;99.90
52979;DHT22;63430;53.186;6.598;2022-11-04T06:30:56;9.70;99.90
52979;DHT22;63430;53.186;6.598;2022-11-04T06:32:58;9.70;99.90
52979;DHT22;63430;53.186;6.598;2022-11-04T06:35:02;9.70;99.90
52979;DHT22;63430;53.186;6.598;2022-11-04T06:37:04;9.60;99.90
52979;DHT22;63430;53.186;6.598;2022-11-04T06:39:07;9.60;99.90
52979;DHT22;63430;53.186;6.598;2022-11-04T06:41:12;9.60;99.90
52979;DHT22;63430;53.186;6.598;2022-11-04T06:43:14;9.60;99.90
52979;DHT22;63430;53.186;6.598;2022-11-04T06:45:25;9.60;99.90
52979;DHT22;63430;53.186;6.598;2022-11-04T06:47:30;9.50;99.90
52979;DHT22;63430;53.186;6.598;2022-11-04T06:49:32;9.60;99.90
52979;DHT22;63430;53.186;6.598;2022-11-04T06:51:35;9.50;99.90
52979;DHT22;63430;53.186;6.598;2022-11-04T06:53:37;9.50;99.90
52979;DHT22;63430;53.186;6.598;2022-11-04T06:55:40;9.50;99.90
52979;DHT22;63430;53.186;6.598;2022-11-04T06:57:42;9.50;99.90
52979;DHT22;63430;53.186;6.598;2022-11-04T06:59:45;9.40;99.90
52979;DHT22;63430;53.186;6.598;2022-11-04T07:01:48;9.40;99.90
52979;DHT22;63430;53.186;6.598;2022-11-04T07:03:55;9.40;99.90
52979;DHT22;63430;53.186;6.598;2022-11-04T07:05:58;9.40;99.90
52979;DHT22;63430;53.186;6.598;2022-11-04T07:08:00;9.40;99.90
52979;DHT22;63430;53.186;6.598;2022-11-04T07:10:04;9.40;99.90
52979;DHT22;63430;53.186;6.598;2022-11-04T07:12:07;9.40;99.90
52979;DHT22;63430;53.186;6.598;2022-11-04T07:14:10;9.40;99.90
52979;DHT22;63430;53.186;6.598;2022-11-04T07:16:13;9.40;99.90
52979;DHT22;63430;53.186;6.598;2022-11-04T07:18:15;9.40;99.90
52979;DHT22;63430;53.186;6.598;2022-11-04T07:20:21;9.40;99.90
52979;DHT22;63430;53.186;6.598;2022-11-04T07:22:24;9.40;99.90
52979;DHT22;63430;53.186;6.598;2022-11-04T07:24:27;9.50;99.90
52979;DHT22;63430;53.186;6.598;2022-11-04T07:26:29;9.50;99.90
52979;DHT22;63430;53.186;6.598;2022-11-04T07:28:31;9.50;99.90
52979;DHT22;63430;53.186;6.598;2022-11-04T07:30:34;9.50;99.90
52979;DHT22;63430;53.186;6.598;2022-11-04T07:32:36;9.50;99.90
52979;DHT22;63430;53.186;6.598;2022-11-04T07:34:38;9.50;99.90
52979;DHT22;63430;53.186;6.598;2022-11-04T07:36:43;9.90;99.90
52979;DHT22;63430;53.186;6.598;2022-11-04T07:38:46;9.50;99.90
52979;DHT22;63430;53.186;6.598;2022-11-04T07:40:50;9.50;99.90
52979;DHT22;63430;53.186;6.598;2022-11-04T07:42:52;9.60;99.90
52979;DHT22;63430;53.186;6.598;2022-11-04T07:45:06;9.50;99.90
52979;DHT22;63430;53.186;6.598;2022-11-04T07:47:08;9.50;99.90
52979;DHT22;63430;53.186;6.598;2022-11-04T07:49:10;9.50;99.90
52979;DHT22;63430;53.186;6.598;2022-11-04T07:51:14;9.50;99.90
52979;DHT22;63430;53.186;6.598;2022-11-04T07:53:20;9.60;99.90
52979;DHT22;63430;53.186;6.598;2022-11-04T07:55:23;9.60;99.90
52979;DHT22;63430;53.186;6.598;2022-11-04T07:57:25;9.60;99.90
52979;DHT22;63430;53.186;6.598;2022-11-04T07:59:29;9.60;99.90
52979;DHT22;63430;53.186;6.598;2022-11-04T08:01:31;9.70;99.90
52979;DHT22;63430;53.186;6.598;2022-11-04T08:03:34;9.70;99.90
52979;DHT22;63430;53.186;6.598;2022-11-04T08:05:38;9.80;99.90
52979;DHT22;63430;53.186;6.598;2022-11-04T08:07:40;9.80;99.90
52979;DHT22;63430;53.186;6.598;2022-11-04T08:09:45;9.90;99.90
52979;DHT22;63430;53.186;6.598;2022-11-04T08:11:48;10.20;99.90
52979;DHT22;63430;53.186;6.598;2022-11-04T08:13:51;9.90;99.90
52979;DHT22;63430;53.186;6.598;2022-11-04T08:15:57;9.90;99.90
52979;DHT22;63430;53.186;6.598;2022-11-04T08:18:02;9.90;99.90
52979;DHT22;63430;53.186;6.598;2022-11-04T08:20:05;10.00;99.90
52979;DHT22;63430;53.186;6.598;2022-11-04T08:22:07;10.00;99.90
52979;DHT22;63430;53.186;6.598;2022-11-04T08:24:10;10.00;99.90
52979;DHT22;63430;53.186;6.598;2022-11-04T08:26:17;10.10;99.90
52979;DHT22;63430;53.186;6.598;2022-11-04T08:28:19;10.20;99.90
52979;DHT22;63430;53.186;6.598;2022-11-04T08:30:22;10.20;99.90
52979;DHT22;63430;53.186;6.598;2022-11-04T08:32:24;10.30;99.90
52979;DHT22;63430;53.186;6.598;2022-11-04T08:34:26;10.70;99.90
52979;DHT22;63430;53.186;6.598;2022-11-04T08:36:31;10.40;99.90
52979;DHT22;63430;53.186;6.598;2022-11-04T08:38:34;10.40;99.90
52979;DHT22;63430;53.186;6.598;2022-11-04T08:40:37;10.50;99.90
52979;DHT22;63430;53.186;6.598;2022-11-04T08:42:42;10.50;99.90
52979;DHT22;63430;53.186;6.598;2022-11-04T08:44:45;10.60;99.90
52979;DHT22;63430;53.186;6.598;2022-11-04T08:46:47;10.60;99.90
52979;DHT22;63430;53.186;6.598;2022-11-04T08:48:50;10.00;99.90
52979;DHT22;63430;53.186;6.598;2022-11-04T08:50:54;10.70;99.90
52979;DHT22;63430;53.186;6.598;2022-11-04T08:52:56;10.80;99.90
52979;DHT22;63430;53.186;6.598;2022-11-04T08:54:59;10.80;99.90
52979;DHT22;63430;53.186;6.598;2022-11-04T08:57:01;12.00;99.90
52979;DHT22;63430;53.186;6.598;2022-11-04T08:59:06;10.90;99.90
52979;DHT22;63430;53.186;6.598;2022-11-04T09:01:09;11.00;99.90
52979;DHT22;63430;53.186;6.598;2022-11-04T09:03:12;11.00;99.90
52979;DHT22;63430;53.186;6.598;2022-11-04T09:05:14;11.10;99.90
52979;DHT22;63430;53.186;6.598;2022-11-04T09:07:17;11.10;99.90
52979;DHT22;63430;53.186;6.598;2022-11-04T09:09:19;11.20;99.90
52979;DHT22;63430;53.186;6.598;2022-11-04T09:11:22;11.30;99.90
52979;DHT22;63430;53.186;6.598;2022-11-04T09:13:27;10.90;99.90
52979;DHT22;63430;53.186;6.598;2022-11-04T09:15:33;11.40;99.90
52979;DHT22;63430;53.186;6.598;2022-11-04T09:17:35;11.40;99.90
52979;DHT22;63430;53.186;6.598;2022-11-04T09:19:40;11.50;99.90
52979;DHT22;63430;53.186;6.598;2022-11-04T09:21:42;11.60;99.90
52979;DHT22;63430;53.186;6.598;2022-11-04T09:23:44;11.60;99.90
52979;DHT22;63430;53.186;6.598;2022-11-04T09:25:47;11.60;99.90
52979;DHT22;63430;53.186;6.598;2022-11-04T09:27:50;11.70;99.90
52979;DHT22;63430;53.186;6.598;2022-11-04T09:29:52;11.70;99.90
52979;DHT22;63430;53.186;6.598;2022-11-04T09:31:57;11.80;99.90
52979;DHT22;63430;53.186;6.598;2022-11-04T09:34:00;11.80;99.90
52979;DHT22;63430;53.186;6.598;2022-11-04T09:36:02;11.90;99.90
52979;DHT22;63430;53.186;6.598;2022-11-04T09:38:04;11.90;99.90
52979;DHT22;63430;53.186;6.598;2022-11-04T09:40:11;11.90;99.90
52979;DHT22;63430;53.186;6.598;2022-11-04T09:42:31;12.00;99.90
52979;DHT22;63430;53.186;6.598;2022-11-04T09:44:45;12.10;99.90
52979;DHT22;63430;53.186;6.598;2022-11-04T09:47:12;12.10;99.90
52979;DHT22;63430;53.186;6.598;2022-11-04T09:49:23;12.10;99.90
52979;DHT22;63430;53.186;6.598;2022-11-04T09:51:27;12.20;99.90
52979;DHT22;63430;53.186;6.598;2022-11-04T09:53:51;12.20;99.90
52979;DHT22;63430;53.186;6.598;2022-11-04T09:55:59;12.40;99.90
52979;DHT22;63430;53.186;6.598;2022-11-04T09:58:02;12.30;99.90
52979;DHT22;63430;53.186;6.598;2022-11-04T10:00:09;12.30;99.90
52979;DHT22;63430;53.186;6.598;2022-11-04T10:02:30;12.30;99.90
52979;DHT22;63430;53.186;6.598;2022-11-04T10:04:45;12.30;99.90
52979;DHT22;63430;53.186;6.598;2022-11-04T10:07:01;12.40;99.90
52979;DHT22;63430;53.186;6.598;2022-11-04T10:09:22;12.40;99.90
52979;DHT22;63430;53.186;6.598;2022-11-04T10:11:36;12.40;99.90
52979;DHT22;63430;53.186;6.598;2022-11-04T10:13:52;12.50;99.90
52979;DHT22;63430;53.186;6.598;2022-11-04T10:16:24;12.70;99.90
52979;DHT22;63430;53.186;6.598;2022-11-04T10:18:42;12.70;99.90
52979;DHT22;63430;53.186;6.598;2022-11-04T10:20:53;12.80;99.90
52979;DHT22;63430;53.186;6.598;2022-11-04T10:23:07;12.90;99.90
52979;DHT22;63430;53.186;6.598;2022-11-04T10:25:24;13.00;99.90
52979;DHT22;63430;53.186;6.598;2022-11-04T10:27:32;13.00;99.90
52979;DHT22;63430;53.186;6.598;2022-11-04T10:29:38;13.10;99.90
52979;DHT22;63430;53.186;6.598;2022-11-04T10:31:43;13.20;99.90
52979;DHT22;63430;53.186;6.598;2022-11-04T10:33:52;13.20;99.90
52979;DHT22;63430;53.186;6.598;2022-11-04T10:35:58;13.30;99.90
52979;DHT22;63430;53.186;6.598;2022-11-04T10:38:15;13.60;99.90
52979;DHT22;63430;53.186;6.598;2022-11-04T10:40:22;13.30;99.90
52979;DHT22;63430;53.186;6.598;2022-11-04T10:42:26;14.30;99.90
52979;DHT22;63430;53.186;6.598;2022-11-04T10:44:32;13.50;99.90
52979;DHT22;63430;53.186;6.598;2022-11-04T10:46:44;13.50;99.90
52979;DHT22;63430;53.186;6.598;2022-11-04T10:48:56;13.50;99.90
52979;DHT22;63430;53.186;6.598;2022-11-04T10:51:01;13.50;99.90
52979;DHT22;63430;53.186;6.598;2022-11-04T10:53:10;13.40;99.90
52979;DHT22;63430;53.186;6.598;2022-11-04T10:55:24;13.50;99.90
52979;DHT22;63430;53.186;6.598;2022-11-04T10:57:27;13.50;99.90
52979;DHT22;63430;53.186;6.598;2022-11-04T10:59:36;13.50;99.90
52979;DHT22;63430;53.186;6.598;2022-11-04T11:01:47;13.50;99.90
52979;DHT22;63430;53.186;6.598;2022-11-04T11:03:53;13.40;99.90
52979;DHT22;63430;53.186;6.598;2022-11-04T11:06:21;13.40;99.90
52979;DHT22;63430;53.186;6.598;2022-11-04T11:08:29;13.30;99.90
52979;DHT22;63430;53.186;6.598;2022-11-04T11:10:33;13.20;99.90
52979;DHT22;63430;53.186;6.598;2022-11-04T11:12:36;13.30;99.90
52979;DHT22;63430;53.186;6.598;2022-11-04T11:14:53;13.20;99.90
52979;DHT22;63430;53.186;6.598;2022-11-04T11:16:57;13.20;99.90
52979;DHT22;63430;53.186;6.598;2022-11-04T11:19:21;13.10;99.90
52979;DHT22;63430;53.186;6.598;2022-11-04T11:21:25;13.20;99.90
52979;DHT22;63430;53.186;6.598;2022-11-04T11:23:39;13.30;99.90
52979;DHT22;63430;53.186;6.598;2022-11-04T11:25:48;13.40;99.90
52979;DHT22;63430;53.186;6.598;2022-11-04T11:27:55;13.40;99.90
52979;DHT22;63430;53.186;6.598;2022-11-04T11:29:58;13.30;99.90
52979;DHT22;63430;53.186;6.598;2022-11-04T11:32:24;13.30;99.90
52979;DHT22;63430;53.186;6.598;2022-11-04T11:34:36;13.30;99.90
52979;DHT22;63430;53.186;6.598;2022-11-04T11:36:39;13.30;99.90
52979;DHT22;63430;53.186;6.598;2022-11-04T11:38:53;13.30;99.90
52979;DHT22;63430;53.186;6.598;2022-11-04T11:41:04;13.40;99.90
52979;DHT22;63430;53.186;6.598;2022-11-04T11:43:29;13.50;99.90
52979;DHT22;63430;53.186;6.598;2022-11-04T11:45:32;13.80;99.90
52979;DHT22;63430;53.186;6.598;2022-11-04T11:47:35;13.40;99.90
52979;DHT22;63430;53.186;6.598;2022-11-04T11:49:42;13.30;99.90
52979;DHT22;63430;53.186;6.598;2022-11-04T11:51:44;13.20;99.90
52979;DHT22;63430;53.186;6.598;2022-11-04T11:56:31;13.10;99.90
52979;DHT22;63430;53.186;6.598;2022-11-04T11:58:59;12.90;99.90
52979;DHT22;63430;53.186;6.598;2022-11-04T12:01:33;12.80;99.90
52979;DHT22;63430;53.186;6.598;2022-11-04T12:03:42;12.70;99.90
52979;DHT22;63430;53.186;6.598;2022-11-04T12:06:20;13.60;99.90
52979;DHT22;63430;53.186;6.598;2022-11-04T12:08:37;13.50;99.90
52979;DHT22;63430;53.186;6.598;2022-11-04T12:11:08;12.90;99.90
52979;DHT22;63430;53.186;6.598;2022-11-04T12:13:17;12.50;99.90
52979;DHT22;63430;53.186;6.598;2022-11-04T12:15:37;12.60;99.90
52979;DHT22;63430;53.186;6.598;2022-11-04T12:17:51;12.60;99.90
52979;DHT22;63430;53.186;6.598;2022-11-04T12:20:04;12.60;99.90
52979;DHT22;63430;53.186;6.598;2022-11-04T12:22:24;12.80;99.90
52979;DHT22;63430;53.186;6.598;2022-11-04T12:24:38;12.60;99.90
52979;DHT22;63430;53.186;6.598;2022-11-04T12:26:51;12.50;99.90
52979;DHT22;63430;53.186;6.598;2022-11-04T12:29:17;12.40;99.90
52979;DHT22;63430;53.186;6.598;2022-11-04T12:31:29;12.30;99.90
52979;DHT22;63430;53.186;6.598;2022-11-04T12:33:38;12.20;99.90
52979;DHT22;63430;53.186;6.598;2022-11-04T12:35:54;12.20;99.90
52979;DHT22;63430;53.186;6.598;2022-11-04T12:38:13;12.10;99.90
52979;DHT22;63430;53.186;6.598;2022-11-04T12:40:20;12.10;99.90
52979;DHT22;63430;53.186;6.598;2022-11-04T12:42:28;12.10;99.90
52979;DHT22;63430;53.186;6.598;2022-11-04T12:44:38;11.50;99.90
52979;DHT22;63430;53.186;6.598;2022-11-04T12:46:51;12.10;99.90
52979;DHT22;63430;53.186;6.598;2022-11-04T12:49:22;12.10;99.90
52979;DHT22;63430;53.186;6.598;2022-11-04T12:51:34;12.10;99.90
52979;DHT22;63430;53.186;6.598;2022-11-04T12:53:59;12.20;99.90
52979;DHT22;63430;53.186;6.598;2022-11-04T12:56:08;12.20;99.90
52979;DHT22;63430;53.186;6.598;2022-11-04T12:58:25;12.20;99.90
52979;DHT22;63430;53.186;6.598;2022-11-04T13:00:33;12.30;99.90
52979;DHT22;63430;53.186;6.598;2022-11-04T13:02:41;12.50;99.90
52979;DHT22;63430;53.186;6.598;2022-11-04T13:04:51;12.50;99.90
52979;DHT22;63430;53.186;6.598;2022-11-04T13:06:59;12.70;99.90
52979;DHT22;63430;53.186;6.598;2022-11-04T13:09:10;13.20;99.90
52979;DHT22;63430;53.186;6.598;2022-11-04T13:11:19;13.00;99.90
52979;DHT22;63430;53.186;6.598;2022-11-04T13:13:30;13.20;99.90
52979;DHT22;63430;53.186;6.598;2022-11-04T13:15:41;13.20;99.90
52979;DHT22;63430;53.186;6.598;2022-11-04T13:17:49;13.10;99.90
52979;DHT22;63430;53.186;6.598;2022-11-04T13:19:53;13.10;99.90
52979;DHT22;63430;53.186;6.598;2022-11-04T13:22:00;13.00;99.90
52979;DHT22;63430;53.186;6.598;2022-11-04T13:24:14;13.10;99.90
52979;DHT22;63430;53.186;6.598;2022-11-04T13:26:17;13.20;99.90
52979;DHT22;63430;53.186;6.598;2022-11-04T13:28:20;13.20;99.90
52979;DHT22;63430;53.186;6.598;2022-11-04T13:30:31;13.30;99.90
52979;DHT22;63430;53.186;6.598;2022-11-04T13:32:39;13.30;99.90
52979;DHT22;63430;53.186;6.598;2022-11-04T13:34:52;13.30;99.90